Time;durP1;ratioP1;P1;durP2;ratioP2;P2;SDS_P1;SDS_P2;PMS_P1;PMS_P2;Temp;Humidity;BMP_temperature;BMP_pressure;BME280_temperature;BME280_humidity;BME280_pressure;Samples;Min_cycle;Max_cycle;Signal;HPM_P1;HPM_P2
2023/04/04 00:02:24;;;;;;;;;5.00;5.00;;;;;10.64;37.79;102010.19;5036556;28;44976;-77
2023/04/04 00:04:49;;;;;;;;;9.00;6.50;;;;;10.64;37.61;102026.22;5025787;28;46038;-76
2023/04/04 00:07:15;;;;;;;;;4.50;4.25;;;;;10.47;37.92;101993.38;5011575;28;45531;-75
2023/04/04 00:09:40;;;;;;;;;7.50;6.75;;;;;10.67;38.13;102048.69;5010863;28;45214;-77
2023/04/04 00:12:06;;;;;;;;;8.75;6.50;;;;;10.60;38.15;102025.19;5005892;28;45504;-77
2023/04/04 00:14:31;;;;;;;;;6.75;5.50;;;;;10.69;38.09;102035.38;4997992;28;46966;-75
2023/04/04 00:16:57;;;;;;;;;3.50;3.50;;;;;10.55;38.04;102013.38;5005143;28;45026;-76
2023/04/04 00:19:23;;;;;;;;;5.50;5.00;;;;;10.65;38.18;102049.47;4993407;28;45449;-75
2023/04/04 00:21:49;;;;;;;;;6.50;4.00;;;;;10.48;37.91;102014.84;4990980;28;45408;-74
2023/04/04 00:24:14;;;;;;;;;6.00;4.50;;;;;10.45;37.95;102011.13;5008630;28;47218;-77
2023/04/04 00:26:39;;;;;;;;;4.25;4.25;;;;;10.51;38.12;102025.69;5007792;28;45361;-75
2023/04/04 00:29:05;;;;;;;;;6.00;6.00;;;;;10.64;38.18;102040.53;5020089;28;45436;-75
2023/04/04 00:31:31;;;;;;;;;8.00;6.00;;;;;10.41;38.14;102001.09;5009949;28;45579;-72
2023/04/04 00:33:56;;;;;;;;;6.25;4.00;;;;;10.61;37.82;102042.13;5013440;28;45723;-74
2023/04/04 00:36:22;;;;;;;;;5.50;5.00;;;;;10.57;37.64;102051.75;5012746;28;45639;-75
2023/04/04 00:38:47;;;;;;;;;6.00;4.00;;;;;10.46;37.87;102034.28;5004935;28;45357;-75
2023/04/04 00:41:13;;;;;;;;;3.00;3.00;;;;;10.38;37.57;102035.69;5000256;28;45738;-73
2023/04/04 00:43:39;;;;;;;;;4.00;4.00;;;;;10.41;37.55;102041.19;5010307;28;45365;-71
2023/04/04 00:46:07;;;;;;;;;2.00;2.00;;;;;9.25;38.36;101840.72;4987531;28;45567;-70
2023/04/04 00:48:32;;;;;;;;;4.25;4.00;;;;;10.38;38.30;102043.69;5011449;28;45066;-73
2023/04/04 00:50:58;;;;;;;;;4.75;4.00;;;;;10.33;38.32;102046.19;5011831;28;45861;-73
2023/04/04 00:53:23;;;;;;;;;6.00;5.25;;;;;10.26;38.58;102034.25;5010450;28;65694;-73
2023/04/04 00:55:49;;;;;;;;;5.75;5.50;;;;;10.29;38.84;102041.47;5007217;28;45313;-73
2023/04/04 00:58:15;;;;;;;;;5.00;4.25;;;;;9.85;38.82;101966.41;5006187;28;45413;-75
2023/04/04 01:00:41;;;;;;;;;5.00;5.00;;;;;10.13;38.34;102014.03;5010465;28;45329;-75
2023/04/04 01:03:09;;;;;;;;;5.75;5.75;;;;;10.28;38.52;102031.66;4992684;28;46740;-74
2023/04/04 01:05:34;;;;;;;;;3.00;3.00;;;;;10.23;38.36;102023.41;5006676;28;45445;-73
2023/04/04 01:08:00;;;;;;;;;5.00;4.00;;;;;10.18;38.31;102005.31;4995862;28;45658;-69
2023/04/04 01:10:25;;;;;;;;;9.25;4.50;;;;;10.29;38.89;102022.78;5005577;28;45490;-71
2023/04/04 01:12:51;;;;;;;;;5.75;4.00;;;;;9.91;39.00;101969.34;5014729;28;45520;-71
2023/04/04 01:15:16;;;;;;;;;7.00;6.00;;;;;10.19;39.33;102023.19;5016001;28;45196;-75
2023/04/04 01:17:43;;;;;;;;;4.50;4.00;;;;;10.19;38.75;102018.75;5012285;28;45390;-76
2023/04/04 01:20:21;;;;;;;;;5.25;5.00;;;;;10.15;38.92;102014.13;5020976;28;45255;-73
2023/04/04 01:22:49;;;;;;;;;7.25;4.50;;;;;10.19;38.67;102016.06;5007351;28;45396;-74
2023/04/04 01:25:16;;;;;;;;;6.25;5.25;;;;;9.97;39.33;101990.09;5013265;28;45401;-77
2023/04/04 01:27:42;;;;;;;;;6.75;6.00;;;;;9.88;39.62;101982.56;5028753;28;45222;-77
2023/04/04 01:30:09;;;;;;;;;8.00;8.00;;;;;10.12;39.95;102030.88;5027735;28;45467;-74
2023/04/04 01:32:48;;;;;;;;;4.75;4.00;;;;;10.09;40.37;102033.41;5010875;28;46291;-70
2023/04/04 01:35:37;;;;;;;;;6.00;6.00;;;;;10.04;40.62;102034.94;5023899;28;45402;-75
2023/04/04 01:38:29;;;;;;;;;6.75;6.75;;;;;10.03;40.12;102037.53;5029671;28;45080;-69
2023/04/04 01:41:00;;;;;;;;;5.00;5.00;;;;;9.99;39.74;102039.13;5031758;28;45232;-77
2023/04/04 01:43:26;;;;;;;;;6.00;6.00;;;;;9.95;40.30;102030.06;5016156;28;47753;-68
2023/04/04 01:45:52;;;;;;;;;8.00;6.50;;;;;9.95;40.28;102039.84;5016481;28;45127;-69
2023/04/04 01:48:17;;;;;;;;;6.00;6.00;;;;;9.88;39.66;102048.38;5012815;28;45210;-70
2023/04/04 01:50:42;;;;;;;;;8.50;7.00;;;;;9.84;40.19;102047.31;5036270;28;44789;-70
2023/04/04 01:53:08;;;;;;;;;7.25;6.25;;;;;9.83;40.33;102044.56;5032494;28;45053;-72
2023/04/04 01:55:33;;;;;;;;;6.00;4.50;;;;;9.85;39.95;102045.53;5013896;28;45750;-71
2023/04/04 01:57:59;;;;;;;;;6.25;6.25;;;;;9.86;40.00;102042.94;5012196;28;45687;-72
2023/04/04 02:00:24;;;;;;;;;12.00;8.50;;;;;9.69;40.09;102018.09;5029384;28;45526;-72
2023/04/04 02:02:50;;;;;;;;;6.50;6.50;;;;;9.68;40.49;102015.34;5030465;28;45318;-68
2023/04/04 02:05:15;;;;;;;;;7.75;6.25;;;;;9.82;40.53;102040.97;5029256;28;45416;-69
2023/04/04 02:07:41;;;;;;;;;10.75;8.00;;;;;9.56;39.89;101996.97;5026862;28;53154;-69
2023/04/04 02:10:06;;;;;;;;;6.75;5.75;;;;;9.70;40.23;102025.28;5022953;28;45332;-71
2023/04/04 02:12:32;;;;;;;;;6.25;5.75;;;;;9.37;40.59;101973.75;5023496;28;45316;-70
2023/04/04 02:14:57;;;;;;;;;8.00;6.25;;;;;9.67;39.98;102026.84;5011119;28;45143;-68
2023/04/04 02:17:23;;;;;;;;;9.00;9.00;;;;;9.53;40.09;102011.06;5016323;28;45429;-69
2023/04/04 02:19:48;;;;;;;;;7.25;5.75;;;;;9.65;40.88;102020.53;5027428;28;45279;-72
2023/04/04 02:22:13;;;;;;;;;5.00;5.00;;;;;9.48;40.92;102003.66;5011663;28;45277;-70
2023/04/04 02:24:39;;;;;;;;;7.25;7.25;;;;;9.62;40.54;102028.38;5026236;28;46149;-69
2023/04/04 02:27:05;;;;;;;;;9.00;6.00;;;;;9.34;40.75;101986.97;5029084;28;45002;-68
2023/04/04 02:29:30;;;;;;;;;6.25;4.00;;;;;9.43;41.36;101994.53;5022075;28;45286;-67
2023/04/04 02:31:56;;;;;;;;;6.50;6.50;;;;;9.53;41.23;102024.38;5004574;28;46944;-70
2023/04/04 02:34:21;;;;;;;;;5.25;5.00;;;;;9.50;40.52;102024.25;4993094;28;45300;-68
2023/04/04 02:36:47;;;;;;;;;3.50;3.50;;;;;9.39;40.84;101997.03;5024886;28;45688;-70
2023/04/04 02:39:12;;;;;;;;;5.00;5.00;;;;;9.40;40.72;102003.25;5023201;28;45619;-72
2023/04/04 02:41:37;;;;;;;;;3.00;3.00;;;;;9.44;40.88;102023.94;5014402;28;57352;-70
2023/04/04 02:44:03;;;;;;;;;7.50;7.50;;;;;9.15;41.39;101983.31;5023941;28;45262;-71
2023/04/04 02:46:29;;;;;;;;;9.75;9.25;;;;;9.39;41.39;102017.47;5016572;28;45193;-67
2023/04/04 02:48:55;;;;;;;;;7.25;6.00;;;;;9.23;41.60;101987.31;5019209;28;45094;-69
2023/04/04 02:51:20;;;;;;;;;8.50;5.75;;;;;8.97;41.93;101945.97;5015201;28;48033;-73
2023/04/04 02:53:45;;;;;;;;;7.50;6.25;;;;;9.36;41.81;102007.53;5015487;28;45064;-74
2023/04/04 02:56:11;;;;;;;;;9.50;6.00;;;;;9.33;42.15;102018.03;5028457;28;45215;-75
2023/04/04 02:58:36;;;;;;;;;7.25;6.00;;;;;9.30;41.58;102000.97;5026322;28;45168;-75
2023/04/04 03:01:02;;;;;;;;;6.75;5.50;;;;;9.15;42.54;101987.75;5030111;28;45931;-74
2023/04/04 03:03:27;;;;;;;;;8.50;7.00;;;;;9.26;42.25;101994.56;5024270;28;45190;-69
2023/04/04 03:05:52;;;;;;;;;7.00;7.00;;;;;9.12;42.95;101966.25;5014020;28;45398;-69
2023/04/04 03:08:18;;;;;;;;;4.25;3.00;;;;;9.33;43.08;102014.47;4997413;28;45666;-68
2023/04/04 03:10:45;;;;;;;;;7.00;7.00;;;;;9.19;43.16;101987.09;5033633;28;45164;-70
2023/04/04 03:13:11;;;;;;;;;7.00;5.00;;;;;9.32;42.88;102007.28;5021458;28;45414;-69
2023/04/04 03:15:36;;;;;;;;;5.75;5.25;;;;;9.30;42.58;102004.53;5031690;28;45502;-69
2023/04/04 03:18:02;;;;;;;;;5.50;5.50;;;;;9.25;42.70;102003.38;5032560;28;45149;-69
2023/04/04 03:20:30;;;;;;;;;8.00;6.75;;;;;9.11;42.99;101973.34;5015640;28;45774;-68
2023/04/04 03:22:56;;;;;;;;;7.00;7.00;;;;;8.99;43.18;101962.03;5012408;28;45085;-69
2023/04/04 03:25:21;;;;;;;;;7.50;7.50;;;;;9.20;42.34;102002.25;5011729;28;45132;-67
2023/04/04 03:27:47;;;;;;;;;4.50;4.25;;;;;9.10;43.33;101997.25;5014750;28;45061;-69
2023/04/04 03:30:12;;;;;;;;;9.00;5.00;;;;;9.13;43.52;102017.00;5006466;28;62933;-68
2023/04/04 03:32:38;;;;;;;;;8.50;8.50;;;;;9.01;43.36;102009.28;5032694;28;45012;-68
2023/04/04 03:35:07;;;;;;;;;7.50;6.50;;;;;9.07;43.05;102015.75;5030860;28;45290;-68
2023/04/04 03:37:33;;;;;;;;;7.00;6.50;;;;;9.06;42.88;102019.25;5034598;28;45095;-68
2023/04/04 03:39:58;;;;;;;;;6.00;5.75;;;;;9.07;42.67;102019.34;5033822;28;46028;-70
2023/04/04 03:42:25;;;;;;;;;7.75;7.75;;;;;8.74;42.96;101960.75;5033969;28;45438;-69
2023/04/04 03:44:52;;;;;;;;;7.75;7.75;;;;;9.05;42.91;102013.00;5026792;28;45672;-69
2023/04/04 03:47:17;;;;;;;;;7.50;5.25;;;;;8.97;43.03;102007.25;5024177;28;45157;-68
2023/04/04 03:49:43;;;;;;;;;7.25;7.00;;;;;8.75;43.45;101983.00;5013239;28;45758;-69
2023/04/04 03:52:08;;;;;;;;;11.00;10.00;;;;;8.78;42.60;101997.38;5010439;28;61995;-69
2023/04/04 03:54:33;;;;;;;;;6.00;6.00;;;;;8.85;42.42;102023.53;5039436;28;54807;-68
2023/04/04 03:57:00;;;;;;;;;6.25;6.25;;;;;8.81;42.72;102021.53;5046137;28;45445;-69
2023/04/04 03:59:25;;;;;;;;;8.00;5.50;;;;;8.78;43.14;102023.13;5036224;28;46295;-69
2023/04/04 04:01:51;;;;;;;;;11.00;7.75;;;;;8.63;42.29;102002.81;5024346;28;45588;-68
2023/04/04 04:04:16;;;;;;;;;12.75;6.25;;;;;8.67;42.78;102027.88;5016492;28;45072;-70
2023/04/04 04:06:42;;;;;;;;;7.25;6.00;;;;;8.50;42.24;102002.97;5015426;28;45757;-69
2023/04/04 04:09:09;;;;;;;;;14.75;7.25;;;;;8.58;42.01;102017.63;5011555;28;45581;-68
2023/04/04 04:11:35;;;;;;;;;10.75;7.00;;;;;8.62;42.75;102040.00;5011999;28;45348;-69
2023/04/04 04:14:00;;;;;;;;;3.75;3.75;;;;;8.56;42.76;102035.25;5014713;28;44976;-73
2023/04/04 04:16:27;;;;;;;;;8.50;6.50;;;;;8.56;42.62;102034.34;4997675;28;45010;-76
2023/04/04 04:18:53;;;;;;;;;8.75;6.00;;;;;8.14;42.94;101973.44;5027092;28;46055;-68
2023/04/04 04:21:19;;;;;;;;;5.25;5.25;;;;;8.51;43.56;102041.16;5007864;28;45491;-67
2023/04/04 04:23:44;;;;;;;;;5.25;5.25;;;;;8.51;43.32;102051.81;5019523;28;45313;-69
2023/04/04 04:26:10;;;;;;;;;12.25;6.25;;;;;8.48;43.38;102052.59;5018549;28;45299;-68
2023/04/04 04:28:35;;;;;;;;;6.50;6.00;;;;;8.48;43.05;102057.91;5015089;28;45376;-69
2023/04/04 04:31:05;;;;;;;;;7.25;7.25;;;;;8.46;43.83;102062.22;5011390;28;45289;-69
2023/04/04 04:33:31;;;;;;;;;9.75;7.00;;;;;8.45;42.91;102057.72;5029571;28;45114;-71
2023/04/04 04:36:03;;;;;;;;;5.75;5.75;;;;;8.41;43.60;102066.34;5015761;28;45271;-69
2023/04/04 04:38:31;;;;;;;;;7.75;5.50;;;;;8.39;43.28;102068.00;5021454;28;45518;-67
2023/04/04 04:40:56;;;;;;;;;5.00;5.00;;;;;8.35;43.64;102061.59;5030580;28;45396;-72
2023/04/04 04:43:22;;;;;;;;;7.25;6.25;;;;;8.30;43.61;102058.66;5004592;28;45416;-68
2023/04/04 04:45:49;;;;;;;;;5.00;3.75;;;;;8.10;43.42;102022.94;5021307;28;45537;-69
2023/04/04 04:48:16;;;;;;;;;9.00;5.50;;;;;8.11;43.59;102030.06;5011409;28;45417;-70
2023/04/04 04:50:45;;;;;;;;;6.00;6.00;;;;;7.90;42.59;102007.53;5012784;28;45452;-67
2023/04/04 04:53:11;;;;;;;;;5.75;5.75;;;;;8.26;43.34;102069.94;5002094;28;45582;-70
2023/04/04 04:55:37;;;;;;;;;7.50;3.75;;;;;8.25;42.71;102067.19;5025067;28;45563;-68
2023/04/04 04:58:05;;;;;;;;;5.75;5.75;;;;;8.22;42.32;102067.06;5002464;28;45667;-70
2023/04/04 05:00:32;;;;;;;;;4.00;4.00;;;;;8.21;42.29;102074.09;5010187;28;45614;-73
2023/04/04 05:03:01;;;;;;;;;6.25;5.00;;;;;8.04;42.50;102042.97;5031639;28;45267;-69
2023/04/04 05:05:27;;;;;;;;;13.50;4.25;;;;;7.89;42.21;102008.41;5013147;28;45049;-74
2023/04/04 05:07:52;;;;;;;;;5.00;5.00;;;;;8.19;42.23;102061.56;5024264;28;46154;-74
2023/04/04 05:10:17;;;;;;;;;8.50;6.75;;;;;7.92;42.75;102032.53;5022633;28;45151;-72
2023/04/04 05:12:43;;;;;;;;;9.00;6.50;;;;;8.04;42.54;102057.16;5000612;28;45388;-74
2023/04/04 05:15:10;;;;;;;;;6.00;5.50;;;;;7.96;43.16;102039.84;5007758;28;45478;-75
2023/04/04 05:17:37;;;;;;;;;11.50;5.75;;;;;8.03;42.90;102063.31;5017120;28;45253;-73
2023/04/04 05:20:03;;;;;;;;;5.00;5.00;;;;;7.96;43.12;102061.13;5026273;28;44774;-71
2023/04/04 05:22:29;;;;;;;;;5.00;5.00;;;;;8.01;42.95;102058.75;5027064;28;45521;-75
2023/04/04 05:24:54;;;;;;;;;4.75;4.75;;;;;7.92;42.50;102036.09;5021313;28;45413;-73
2023/04/04 05:27:20;;;;;;;;;5.00;5.00;;;;;7.86;43.09;102027.75;5030946;28;45403;-74
2023/04/04 05:29:46;;;;;;;;;5.75;5.25;;;;;7.62;42.74;101982.00;5024921;28;44927;-73
2023/04/04 05:32:11;;;;;;;;;10.50;10.00;;;;;7.69;42.67;101999.25;5031365;28;45053;-74
2023/04/04 05:34:37;;;;;;;;;7.75;6.75;;;;;7.98;42.21;102046.16;5035180;28;45120;-74
2023/04/04 05:37:02;;;;;;;;;5.25;5.00;;;;;7.99;42.43;102044.44;5043530;28;45872;-70
2023/04/04 05:39:28;;;;;;;;;8.00;5.00;;;;;7.96;42.35;102036.28;5045414;28;45172;-72
2023/04/04 05:41:53;;;;;;;;;9.50;5.25;;;;;7.95;43.04;102040.66;5034174;28;44974;-73
2023/04/04 05:44:18;;;;;;;;;8.50;7.50;;;;;8.04;42.51;102053.59;5024228;28;44915;-70
2023/04/04 05:46:44;;;;;;;;;5.00;4.00;;;;;8.07;42.13;102065.34;5020132;28;45359;-75
2023/04/04 05:49:09;;;;;;;;;5.00;4.50;;;;;8.08;42.76;102067.19;5030744;28;45164;-73
2023/04/04 05:51:34;;;;;;;;;5.50;4.50;;;;;8.04;42.34;102066.91;5031782;28;45048;-75
2023/04/04 05:54:00;;;;;;;;;6.00;5.00;;;;;8.03;42.05;102062.41;5023562;28;45144;-73
2023/04/04 05:56:25;;;;;;;;;10.75;5.00;;;;;8.04;42.13;102078.47;5016151;28;45081;-73
2023/04/04 05:58:50;;;;;;;;;5.25;4.25;;;;;8.02;42.45;102074.81;5002417;28;45377;-74
2023/04/04 06:01:17;;;;;;;;;6.00;3.25;;;;;7.84;42.02;102044.47;5024046;28;45072;-77
2023/04/04 06:03:42;;;;;;;;;3.25;3.25;;;;;7.71;42.32;102021.53;5026887;28;45089;-77
2023/04/04 06:06:08;;;;;;;;;5.00;5.00;;;;;7.99;42.73;102079.03;5016908;28;45554;-74
2023/04/04 06:08:33;;;;;;;;;7.00;5.00;;;;;7.93;42.47;102083.13;5019888;28;44936;-75
2023/04/04 06:11:21;;;;;;;;;4.25;4.25;;;;;7.97;42.64;102084.25;5023157;28;45513;-70
2023/04/04 06:14:00;;;;;;;;;5.25;4.50;;;;;8.01;42.47;102085.34;5002336;28;45391;-74
2023/04/04 06:16:55;;;;;;;;;7.50;7.50;;;;;8.05;42.46;102088.28;5024505;28;47202;-73
2023/04/04 06:19:24;;;;;;;;;10.50;8.25;;;;;8.07;42.25;102099.03;5007789;28;45025;-72
2023/04/04 06:22:22;;;;;;;;;9.25;8.00;;;;;7.75;42.39;102044.81;4998152;28;45607;-75
2023/04/04 06:24:47;;;;;;;;;7.75;7.75;;;;;7.96;42.35;102092.16;5008983;22;1189832;-65
2023/04/04 06:27:13;;;;;;;;;8.25;8.25;;;;;8.01;42.03;102117.28;5031169;28;45612;-64
2023/04/04 06:29:38;;;;;;;;;7.50;7.50;;;;;8.02;42.17;102119.09;5034739;28;45587;-64
2023/04/04 06:32:04;;;;;;;;;12.00;9.50;;;;;7.97;42.16;102112.59;5031333;28;45433;-66
2023/04/04 06:34:30;;;;;;;;;7.75;6.50;;;;;8.01;42.15;102119.94;5025633;28;45438;-71
2023/04/04 06:36:58;;;;;;;;;5.00;5.00;;;;;8.04;42.12;102126.38;5034939;28;45455;-70
2023/04/04 06:39:24;;;;;;;;;9.75;8.50;;;;;8.06;42.29;102121.13;5033965;28;45565;-69
2023/04/04 06:41:49;;;;;;;;;12.50;11.00;;;;;8.05;41.06;102132.59;5022626;28;45304;-65
2023/04/04 06:44:14;;;;;;;;;7.00;5.00;;;;;7.94;42.15;102108.94;5036585;28;45415;-69
2023/04/04 06:46:40;;;;;;;;;6.00;6.00;;;;;8.07;41.36;102138.97;5034597;28;45410;-66
2023/04/04 06:49:05;;;;;;;;;10.00;4.50;;;;;7.99;41.75;102121.63;5033651;28;45407;-72
2023/04/04 06:51:33;;;;;;;;;7.25;7.25;;;;;8.04;41.06;102123.72;5032722;28;45741;-68
2023/04/04 06:54:00;;;;;;;;;9.75;8.25;;;;;8.13;40.53;102131.31;5036366;28;45406;-71
2023/04/04 06:56:25;;;;;;;;;8.75;8.25;;;;;8.13;41.36;102136.63;5034708;28;48185;-68
2023/04/04 06:58:51;;;;;;;;;8.75;7.75;;;;;8.12;40.83;102126.84;5035150;28;45554;-69
2023/04/04 07:01:17;;;;;;;;;10.50;8.75;;;;;8.15;41.29;102118.09;5034364;28;45632;-69
2023/04/04 07:03:43;;;;;;;;;12.50;6.75;;;;;8.29;40.38;102149.09;5034300;28;45445;-69
2023/04/04 07:06:09;;;;;;;;;7.50;6.00;;;;;8.30;40.84;102153.63;5032923;28;46090;-63
2023/04/04 07:08:34;;;;;;;;;6.00;5.25;;;;;8.11;40.94;102114.34;5035942;28;45825;-62
2023/04/04 07:11:00;;;;;;;;;7.75;7.75;;;;;8.30;39.88;102150.94;5025826;28;45435;-68
2023/04/04 07:13:26;;;;;;;;;12.50;10.75;;;;;8.20;40.29;102127.25;5043294;28;45538;-71
2023/04/04 07:15:51;;;;;;;;;8.00;7.75;;;;;8.34;40.38;102136.06;5030286;28;45153;-68
2023/04/04 07:18:17;;;;;;;;;10.25;6.75;;;;;8.35;40.12;102135.22;5033371;28;45234;-67
2023/04/04 07:20:45;;;;;;;;;9.00;6.00;;;;;8.42;39.81;102151.66;5053638;28;45087;-66
2023/04/04 07:23:10;;;;;;;;;8.75;6.00;;;;;8.41;39.23;102143.56;5053244;28;45088;-65
2023/04/04 07:25:37;;;;;;;;;6.25;3.75;;;;;8.48;39.86;102148.47;5050640;28;46051;-68
2023/04/04 07:28:02;;;;;;;;;5.75;5.00;;;;;8.51;39.64;102143.28;5028411;28;45241;-65
2023/04/04 07:30:31;;;;;;;;;6.50;4.50;;;;;8.56;39.90;102146.22;5033029;28;45249;-67
2023/04/04 07:33:01;;;;;;;;;3.00;3.00;;;;;8.62;38.81;102151.91;5050781;28;45253;-64
2023/04/04 07:35:27;;;;;;;;;9.25;9.00;;;;;8.10;39.42;102057.53;5051313;28;45369;-67
2023/04/04 07:37:52;;;;;;;;;11.75;11.50;;;;;8.69;39.92;102143.41;5042866;28;45485;-63
2023/04/04 07:40:18;;;;;;;;;7.75;7.25;;;;;8.78;38.73;102143.03;5034085;28;45391;-64
2023/04/04 07:42:50;;;;;;;;;9.50;5.75;;;;;8.65;38.65;102126.34;5037007;28;45381;-65
2023/04/04 07:45:16;;;;;;;;;13.00;5.50;;;;;8.83;37.89;102144.22;5035779;28;46214;-66
2023/04/04 07:47:45;;;;;;;;;11.50;7.00;;;;;8.85;37.70;102139.88;5035643;28;45486;-64
2023/04/04 07:50:15;;;;;;;;;8.25;7.25;;;;;8.85;38.50;102132.78;5035928;28;45338;-66
2023/04/04 07:52:41;;;;;;;;;6.00;6.00;;;;;8.88;38.35;102140.06;5036249;28;45473;-64
2023/04/04 07:55:08;;;;;;;;;10.50;9.00;;;;;8.93;38.15;102138.56;5035649;28;46598;-65
2023/04/04 07:57:38;;;;;;;;;5.25;5.25;;;;;8.87;38.34;102107.97;5051063;28;45358;-66
2023/04/04 08:00:05;;;;;;;;;4.25;4.25;;;;;9.12;38.38;102136.91;5034035;28;45475;-63
2023/04/04 08:02:31;;;;;;;;;9.50;7.75;;;;;9.20;38.30;102132.91;5035702;28;45627;-64
2023/04/04 08:04:56;;;;;;;;;8.00;6.00;;;;;9.14;37.24;102128.16;5035739;28;46265;-68
2023/04/04 08:07:22;;;;;;;;;3.25;3.25;;;;;9.14;38.26;102117.50;5035781;28;45630;-65
2023/04/04 08:09:48;;;;;;;;;4.75;4.75;;;;;9.27;38.09;102129.72;5034007;28;45336;-65
2023/04/04 08:12:13;;;;;;;;;9.75;7.75;;;;;9.32;37.66;102132.63;5035407;28;45451;-63
2023/04/04 08:14:38;;;;;;;;;12.00;7.00;;;;;9.39;37.52;102129.47;5034895;28;46084;-69
2023/04/04 08:17:04;;;;;;;;;5.50;5.50;;;;;9.34;37.27;102123.91;5035360;28;45370;-64
2023/04/04 08:19:29;;;;;;;;;4.75;1.50;;;;;9.37;37.02;102126.72;5033863;28;45421;-64
2023/04/04 08:21:55;;;;;;;;;8.75;8.50;;;;;9.43;36.94;102128.78;5034215;28;45252;-68
2023/04/04 08:24:21;;;;;;;;;10.50;6.00;;;;;9.39;37.68;102092.13;5033720;28;47741;-67
2023/04/04 08:26:47;;;;;;;;;12.00;10.00;;;;;9.64;36.46;102126.34;5035494;28;45581;-66
2023/04/04 08:29:12;;;;;;;;;5.25;5.25;;;;;9.66;36.07;102124.66;5035089;28;45381;-66
2023/04/04 08:31:39;;;;;;;;;10.50;6.75;;;;;9.79;37.03;102123.56;5035150;28;45449;-69
2023/04/04 08:34:07;;;;;;;;;7.00;7.00;;;;;9.88;36.47;102117.78;5034717;28;45558;-66
2023/04/04 08:36:32;;;;;;;;;8.75;5.50;;;;;9.99;36.33;102118.34;5034725;28;45303;-71
2023/04/04 08:38:58;;;;;;;;;7.75;6.50;;;;;10.18;35.85;102125.50;5035425;28;45757;-66
2023/04/04 08:41:24;;;;;;;;;11.25;5.00;;;;;10.30;34.77;102104.75;5035557;28;45307;-62
2023/04/04 08:43:53;;;;;;;;;6.50;6.00;;;;;10.46;34.60;102115.41;5034796;28;45506;-67
2023/04/04 08:46:21;;;;;;;;;13.50;11.75;;;;;10.49;35.15;102125.28;5050340;22;45313;-61
2023/04/04 08:48:47;;;;;;;;;11.50;7.00;;;;;10.43;34.72;102109.91;5034726;28;45358;-60
2023/04/04 08:51:13;;;;;;;;;7.00;6.00;;;;;10.40;35.01;102101.72;5034894;28;45274;-65
2023/04/04 08:53:39;;;;;;;;;39.25;35.75;;;;;10.48;35.05;102111.03;5034772;28;45495;-62
2023/04/04 08:56:05;;;;;;;;;16.50;12.00;;;;;10.57;34.65;102110.56;5034701;28;45432;-62
2023/04/04 08:58:30;;;;;;;;;10.50;9.75;;;;;10.69;34.28;102124.53;5034676;28;45358;-61
2023/04/04 09:00:56;;;;;;;;;12.75;7.00;;;;;10.80;34.41;102145.50;5035062;28;45519;-63
2023/04/04 09:03:26;;;;;;;;;10.25;6.00;;;;;10.83;34.23;102140.31;5035260;28;45622;-62
2023/04/04 09:05:56;;;;;;;;;7.25;7.25;;;;;10.75;34.51;102118.53;5035103;28;45431;-61
2023/04/04 09:08:25;;;;;;;;;7.25;7.25;;;;;10.90;34.25;102134.38;5034291;28;45332;-61
2023/04/04 09:10:51;;;;;;;;;8.50;8.00;;;;;10.95;34.24;102119.47;5034525;28;45394;-61
2023/04/04 09:13:18;;;;;;;;;4.50;4.50;;;;;11.12;34.33;102128.31;5034682;28;45477;-62
2023/04/04 09:15:49;;;;;;;;;6.75;6.25;;;;;11.06;34.06;102128.91;5035085;28;45727;-62
2023/04/04 09:18:15;;;;;;;;;8.25;8.25;;;;;11.10;34.80;102113.91;5035497;28;45299;-60
2023/04/04 09:20:42;;;;;;;;;17.00;13.00;;;;;11.27;32.79;102132.50;5035235;28;45366;-61
2023/04/04 09:23:13;;;;;;;;;9.25;6.50;;;;;11.37;33.61;102137.47;5034909;28;46238;-61
2023/04/04 09:25:50;;;;;;;;;8.50;6.25;;;;;11.22;33.04;102095.78;5033764;28;45405;-62
2023/04/04 09:28:16;;;;;;;;;8.75;6.00;;;;;11.34;33.16;102090.06;5033637;28;45442;-60
2023/04/04 09:30:45;;;;;;;;;15.25;11.50;;;;;11.68;32.08;102120.06;5034899;28;45477;-62
2023/04/04 09:33:12;;;;;;;;;9.00;7.50;;;;;11.77;31.25;102123.16;5034945;28;46183;-60
2023/04/04 09:35:42;;;;;;;;;7.25;7.25;;;;;11.67;32.19;102112.91;5034387;28;45425;-60
2023/04/04 09:38:08;;;;;;;;;6.75;5.00;;;;;11.79;32.70;102121.47;5034740;28;45362;-61
2023/04/04 09:40:35;;;;;;;;;8.00;8.00;;;;;11.84;32.18;102110.94;5034666;28;45460;-62
2023/04/04 09:43:01;;;;;;;;;9.00;7.25;;;;;11.60;32.71;102093.88;5034123;28;46704;-61
2023/04/04 09:45:31;;;;;;;;;7.50;6.00;;;;;11.79;32.52;102126.81;5035015;28;45541;-62
2023/04/04 09:47:56;;;;;;;;;10.00;10.00;;;;;11.69;32.72;102105.84;5036209;28;45354;-62
2023/04/04 09:50:24;;;;;;;;;11.25;9.00;;;;;11.87;32.81;102119.13;5036998;28;45453;-63
2023/04/04 09:52:50;;;;;;;;;10.50;8.00;;;;;11.88;30.76;102099.50;5036690;28;46545;-62
2023/04/04 09:55:17;;;;;;;;;8.75;6.00;;;;;11.96;31.31;102100.78;5049807;22;45368;-71
2023/04/04 09:57:43;;;;;;;;;12.00;10.25;;;;;12.11;30.59;102105.88;5034012;28;45597;-68
2023/04/04 10:00:11;;;;;;;;;7.50;6.75;;;;;12.25;30.31;102109.16;5033940;28;45411;-68
2023/04/04 10:02:40;;;;;;;;;9.50;9.25;;;;;12.30;30.71;102102.22;5032166;28;48192;-69
2023/04/04 10:05:09;;;;;;;;;8.00;8.00;;;;;12.40;30.36;102104.41;5033713;28;45347;-67
2023/04/04 10:07:38;;;;;;;;;46.00;38.75;;;;;12.49;31.26;102106.56;5033742;28;45543;-68
2023/04/04 10:10:08;;;;;;;;;11.75;11.00;;;;;12.58;31.69;102108.69;5048471;28;45510;-65
2023/04/04 10:12:34;;;;;;;;;7.75;7.75;;;;;12.67;31.40;102111.72;5033110;28;46550;-67
2023/04/04 10:15:00;;;;;;;;;10.50;8.75;;;;;12.73;30.54;102109.28;5032814;28;45357;-69
2023/04/04 10:17:30;;;;;;;;;10.25;8.50;;;;;12.78;30.65;102106.78;5033338;28;45412;-70
2023/04/04 10:20:03;;;;;;;;;10.00;8.00;;;;;12.84;30.42;102107.03;5033629;28;45422;-73
2023/04/04 10:22:30;;;;;;;;;9.50;7.00;;;;;12.81;29.88;102107.81;5033270;28;45694;-72
2023/04/04 10:24:57;;;;;;;;;7.75;7.00;;;;;12.84;29.77;102113.31;5033222;28;45383;-71
2023/04/04 10:27:23;;;;;;;;;9.75;7.00;;;;;12.85;29.94;102108.84;5033345;28;45444;-72
2023/04/04 10:29:49;;;;;;;;;6.00;6.00;;;;;12.89;28.71;102100.09;5033506;28;45434;-70
2023/04/04 10:32:47;;;;;;;;;6.50;5.50;;;;;12.92;29.80;102097.53;5032769;28;45627;-72
2023/04/04 10:35:13;;;;;;;;;8.25;8.00;;;;;12.81;29.06;102072.06;5033568;28;45510;-70
2023/04/04 10:37:57;;;;;;;;;7.00;7.00;;;;;12.99;29.20;102107.63;5033327;28;45347;-69
2023/04/04 10:40:27;;;;;;;;;9.50;7.25;;;;;12.96;29.96;102098.56;5033701;28;45711;-72
2023/04/04 10:42:54;;;;;;;;;5.75;5.25;;;;;12.98;29.53;102100.41;5032982;28;46505;-74
2023/04/04 10:45:20;;;;;;;;;12.25;11.00;;;;;13.00;29.31;102095.13;5032796;28;45312;-72
2023/04/04 10:47:46;;;;;;;;;9.75;9.25;;;;;13.09;29.43;102099.06;5032645;28;45568;-73
2023/04/04 10:50:12;;;;;;;;;6.75;6.75;;;;;13.17;30.13;102104.72;5033226;28;45270;-69
2023/04/04 10:52:43;;;;;;;;;8.50;6.25;;;;;13.22;29.44;102105.81;5032818;28;45842;-64
2023/04/04 10:55:11;;;;;;;;;10.75;8.50;;;;;13.25;29.96;102097.88;5034251;28;45372;-66
2023/04/04 10:57:40;;;;;;;;;6.50;4.75;;;;;13.27;29.07;102089.88;5032487;28;45458;-67
2023/04/04 11:00:08;;;;;;;;;10.00;9.00;;;;;13.29;30.02;102085.47;5031848;28;45360;-67
2023/04/04 11:02:47;;;;;;;;;22.25;17.50;;;;;13.29;29.33;102085.47;5036106;28;47135;-63
2023/04/04 11:05:30;;;;;;;;;8.25;6.00;;;;;13.30;28.98;102076.56;5036670;28;45409;-70
2023/04/04 11:08:04;;;;;;;;;10.25;5.75;;;;;13.24;29.21;102069.19;5036290;28;45362;-69
2023/04/04 11:10:32;;;;;;;;;5.25;5.25;;;;;13.35;28.72;102084.84;5036578;28;45341;-67
2023/04/04 11:13:06;;;;;;;;;12.75;10.00;;;;;13.39;28.99;102068.88;5035892;28;45449;-67
2023/04/04 11:15:55;;;;;;;;;7.00;6.00;;;;;13.43;29.27;102068.13;5036986;28;45548;-69
2023/04/04 11:18:22;;;;;;;;;9.25;9.25;;;;;13.48;29.37;102059.31;5035964;28;45463;-65
2023/04/04 11:20:48;;;;;;;;;9.50;9.50;;;;;13.36;28.96;102043.69;5036318;28;45375;-69
2023/04/04 11:23:21;;;;;;;;;9.25;8.50;;;;;13.41;28.57;102055.50;5035751;28;46335;-66
2023/04/04 11:25:55;;;;;;;;;9.75;7.50;;;;;13.36;28.55;102055.34;5035803;28;45537;-70
2023/04/04 11:28:32;;;;;;;;;15.75;13.00;;;;;13.47;28.82;102066.47;5035785;28;45361;-70
2023/04/04 11:31:16;;;;;;;;;7.50;7.50;;;;;13.41;29.37;102063.56;5036016;28;45754;-67